Grindstone City, Michigan
Current Conditions -  °F | °C
As of 9:39 AM on Friday 24 Oct 2014 (Local Time) from KBAX Reporting Station
Scattered Clouds Scattered Clouds  
Wind Chill: 36°   Ceiling: Unl
Heat Index: 40°   Visibility: 7mi
Dew Point: 40°   Wind: 6mph
Humidity: 100%   Direction: 190°S
Pressure: 30.06"   Gusts: NA
Location:  44.0077°N, 82.9857°W
Report Text: KBAX 241339Z AUTO 19005KT 7SM SCT065 05/05 A3006 RMK AO2 T00450045
Loading
Personal Weather Stations






























Interactive Weather Map
Tropical Storm Tracking
New forecast layout! Learn more

10-Day Weather Forecast

Advertisements
Track Severe Weather on mobile